Time;durP1;ratioP1;P1;durP2;ratioP2;P2;SDS_P1;SDS_P2;PMS_P1;PMS_P2;Temp;Humidity;BMP_temperature;BMP_pressure;BME280_temperature;BME280_humidity;BME280_pressure;Samples;Min_cycle;Max_cycle;Signal;HPM_P1;HPM_P2
2023/10/20 00:02:28;;;;;;;;;;;11.80;55.70;;;10.48;56.55;99183.59;12250015;19;19923;-82
2023/10/20 00:06:30;;;;;;;;;;;11.80;55.20;;;10.54;56.73;99208.38;12249968;19;19946;-82
2023/10/20 00:10:35;;;;;;;;;;;11.80;55.30;;;10.59;56.73;99222.72;12246587;19;19974;-82
2023/10/20 00:14:36;;;;;;;;;;;11.80;55.60;;;10.51;56.67;99206.84;12247221;19;19925;-82
2023/10/20 00:18:38;;;;;;;;;;;11.70;56.10;;;10.49;56.74;99211.34;12245278;19;19955;-82
2023/10/20 00:22:40;;;;;;;;;;;11.80;55.60;;;10.59;56.67;99234.94;12250422;19;20587;-83
2023/10/20 00:26:42;;;;;;;;;;;11.80;55.70;;;10.57;56.66;99240.28;12248689;19;19974;-83
2023/10/20 00:30:43;;;;;;;;;;;11.80;55.40;;;10.54;56.55;99222.25;12246092;19;19907;-83
2023/10/20 00:34:46;;;;;;;;;;;11.80;55.90;;;10.30;56.79;99174.59;12248318;19;19923;-83
2023/10/20 00:38:47;;;;;;;;;;;11.70;55.80;;;10.56;56.65;99229.97;12250884;19;19992;-82
2023/10/20 00:42:49;;;;;;;;;;;11.80;56.00;;;10.54;56.84;99219.63;12249144;19;19922;-83
2023/10/20 00:46:50;;;;;;;;;;;11.70;56.10;;;10.32;56.96;99183.97;12244663;19;19965;-83
2023/10/20 00:50:52;;;;;;;;;;;11.80;55.80;;;10.41;56.82;99191.06;12245964;19;19914;-83
2023/10/20 00:54:54;;;;;;;;;;;11.70;55.40;;;10.51;56.72;99209.44;12247894;19;19911;-83
2023/10/20 00:58:56;;;;;;;;;;;11.70;56.20;;;10.43;57.00;99190.13;12248237;19;19922;-83
2023/10/20 01:02:57;;;;;;;;;;;11.70;55.30;;;10.46;56.92;99185.47;12248186;19;19914;-83
2023/10/20 01:06:59;;;;;;;;;;;11.70;55.40;;;10.35;56.96;99156.81;12247958;19;19927;-83
2023/10/20 01:11:00;;;;;;;;;;;11.70;55.60;;;10.50;56.98;99180.84;12243868;19;19918;-83
2023/10/20 01:15:05;;;;;;;;;;;11.70;55.80;;;10.44;56.85;99173.50;12246636;19;20016;-83
2023/10/20 01:19:06;;;;;;;;;;;11.70;55.40;;;10.49;56.89;99185.25;12247285;19;19915;-83
2023/10/20 01:23:07;;;;;;;;;;;11.80;55.50;;;10.42;56.84;99184.06;12245987;19;19935;-83
2023/10/20 01:27:09;;;;;;;;;;;11.80;55.30;;;10.51;56.85;99198.19;12247028;19;20445;-83
2023/10/20 01:31:11;;;;;;;;;;;11.70;56.00;;;10.49;57.07;99177.41;12243500;19;19947;-83
2023/10/20 01:35:13;;;;;;;;;;;11.70;56.30;;;10.48;57.08;99173.16;12250886;19;19946;-82
2023/10/20 01:39:16;;;;;;;;;;;11.70;56.30;;;10.45;57.09;99173.41;12256534;19;19978;-83
2023/10/20 01:43:17;;;;;;;;;;;11.70;56.40;;;10.48;57.01;99172.34;12258760;19;19935;-83
2023/10/20 01:47:20;;;;;;;;;;;11.70;55.90;;;10.46;57.03;99151.56;12256765;19;19995;-82
2023/10/20 01:51:21;;;;;;;;;;;11.80;56.40;;;10.31;56.91;99124.06;12254095;19;19943;-83
2023/10/20 01:55:23;;;;;;;;;;;11.60;55.80;;;10.48;57.03;99157.50;12255697;19;19923;-83
2023/10/20 01:59:24;;;;;;;;;;;11.70;55.90;;;10.49;57.01;99153.09;12255308;19;19919;-82
2023/10/20 02:03:26;;;;;;;;;;;11.70;56.10;;;10.50;57.21;99155.56;12256210;19;19929;-83
2023/10/20 02:07:27;;;;;;;;;;;11.70;56.10;;;10.37;57.10;99139.25;12254279;19;20348;-83
2023/10/20 02:11:29;;;;;;;;;;;11.70;56.20;;;10.50;57.13;99149.53;12254936;19;19937;-83
2023/10/20 02:20:34;;;;;;;;;;;11.70;55.90;;;10.44;56.98;99122.13;12251803;19;19919;-83
2023/10/20 02:24:36;;;;;;;;;;;11.70;56.60;;;10.45;57.22;99143.84;12253354;19;20250;-83
2023/10/20 02:28:38;;;;;;;;;;;11.80;56.20;;;10.36;57.09;99133.19;12252402;19;19907;-83
2023/10/20 02:32:40;;;;;;;;;;;11.70;56.30;;;10.43;57.39;99146.59;12253853;19;19978;-83
2023/10/20 02:36:42;;;;;;;;;;;11.70;55.70;;;10.27;57.43;99117.44;12252491;19;19934;-83
2023/10/20 02:40:54;;;;;;;;;;;11.60;55.90;;;10.41;57.34;99140.66;12249814;19;19923;-83
2023/10/20 02:44:55;;;;;;;;;;;11.60;56.60;;;10.43;57.46;99127.50;12250808;19;20337;-83
2023/10/20 02:48:56;;;;;;;;;;;11.60;56.90;;;10.31;57.43;99101.41;12250952;19;19923;-83
2023/10/20 02:52:58;;;;;;;;;;;11.60;58.00;;;10.37;57.57;99094.91;12252458;19;19925;-83
2023/10/20 02:56:59;;;;;;;;;;;11.70;58.00;;;10.37;57.48;99092.28;12251692;19;19921;-83
2023/10/20 03:01:02;;;;;;;;;;;11.60;58.10;;;10.39;57.36;99078.13;12248785;19;19954;-83
2023/10/20 03:05:06;;;;;;;;;;;11.60;58.70;;;10.39;57.42;99077.31;12253617;19;20339;-83
2023/10/20 03:09:07;;;;;;;;;;;11.70;57.70;;;10.41;57.53;99096.28;12249485;19;19919;-82
2023/10/20 03:13:10;;;;;;;;;;;11.60;56.80;;;10.43;57.50;99094.41;12254489;19;19915;-83
2023/10/20 03:17:12;;;;;;;;;;;11.60;56.90;;;10.41;57.55;99096.28;12251629;19;19915;-83
2023/10/20 03:21:13;;;;;;;;;;;11.60;57.50;;;10.39;57.54;99087.75;12248241;19;19932;-82
2023/10/20 03:25:14;;;;;;;;;;;11.60;57.50;;;10.36;57.61;99088.84;12252153;19;19906;-83
2023/10/20 03:29:16;;;;;;;;;;;11.60;58.00;;;10.28;57.66;99082.56;12250078;19;19919;-82
2023/10/20 03:33:17;;;;;;;;;;;11.60;57.50;;;10.34;57.44;99077.72;12251159;19;19970;-83
2023/10/20 03:37:18;;;;;;;;;;;11.50;57.70;;;10.33;57.49;99078.66;12249894;19;20334;-82
2023/10/20 03:41:22;;;;;;;;;;;11.50;57.00;;;10.29;57.78;99060.75;12250400;19;19911;-83
2023/10/20 03:45:24;;;;;;;;;;;11.50;57.10;;;10.30;57.43;99058.03;12249843;19;19919;-83
2023/10/20 03:49:28;;;;;;;;;;;11.50;56.80;;;10.17;57.49;99060.75;12249213;19;19926;-82
2023/10/20 03:53:41;;;;;;;;;;;11.50;56.60;;;10.15;57.61;99061.81;12250585;19;19934;-83
2023/10/20 03:57:43;;;;;;;;;;;11.50;57.20;;;10.21;57.52;99071.78;12247762;19;19918;-83
2023/10/20 04:01:45;;;;;;;;;;;11.50;57.50;;;10.13;57.50;99048.09;12245814;19;19923;-83
2023/10/20 04:05:46;;;;;;;;;;;11.50;57.90;;;10.17;57.57;99049.50;12250428;19;19918;-83
2023/10/20 04:09:48;;;;;;;;;;;11.40;58.00;;;10.04;57.79;99034.00;12246301;19;19931;-82
2023/10/20 04:13:49;;;;;;;;;;;11.40;57.80;;;9.88;57.80;98994.47;12250942;19;19922;-83
2023/10/20 04:17:54;;;;;;;;;;;11.40;57.50;;;10.08;57.63;99035.44;12247082;19;19989;-83
2023/10/20 04:21:58;;;;;;;;;;;11.30;57.60;;;10.07;57.86;99007.69;12249419;19;19922;-84
2023/10/20 04:26:00;;;;;;;;;;;11.30;57.80;;;10.06;57.80;98994.78;12248747;19;19926;-83
2023/10/20 04:52:05;;;;;;;;;;;11.20;57.40;;;9.88;58.02;99007.50;12245068;19;19941;-84
2023/10/20 05:04:36;;;;;;;;;;;11.10;56.40;;;9.69;57.94;98997.72;12248304;19;19922;-84
2023/10/20 05:08:37;;;;;;;;;;;11.10;57.10;;;9.81;58.13;99003.75;12245939;19;20389;-84
2023/10/20 05:12:39;;;;;;;;;;;11.10;57.80;;;9.80;57.99;98989.03;12252091;19;19948;-84
2023/10/20 05:16:40;;;;;;;;;;;11.10;56.40;;;9.68;57.98;98996.88;12262062;19;19919;-83
2023/10/20 05:20:42;;;;;;;;;;;11.00;57.50;;;9.78;57.99;99012.63;12254416;19;20355;-83
2023/10/20 05:24:44;;;;;;;;;;;11.00;56.90;;;9.69;57.92;99022.03;12257928;19;19922;-84
2023/10/20 05:28:45;;;;;;;;;;;11.00;56.60;;;9.67;58.18;99025.69;12256843;19;19918;-84
2023/10/20 05:32:48;;;;;;;;;;;11.00;57.00;;;9.65;58.01;99017.16;12256236;19;19923;-84
2023/10/20 05:36:49;;;;;;;;;;;11.00;56.60;;;9.74;58.19;99027.66;12259560;19;19930;-84
2023/10/20 05:40:58;;;;;;;;;;;11.00;56.30;;;9.72;58.16;99013.94;12255545;19;19922;-84
2023/10/20 05:45:17;;;;;;;;;;;11.00;58.20;;;9.69;58.27;99013.34;12257268;19;20257;-84
2023/10/20 05:49:18;;;;;;;;;;;11.00;56.90;;;9.66;58.03;99014.41;12252928;19;19922;-83
2023/10/20 05:53:20;;;;;;;;;;;11.00;57.40;;;9.56;58.06;98981.38;12258721;19;19922;-84
2023/10/20 05:57:22;;;;;;;;;;;11.00;58.30;;;9.45;58.21;98971.81;12260985;19;20336;-84
2023/10/20 06:01:24;;;;;;;;;;;10.90;58.30;;;9.45;58.21;98974.41;12259512;19;19907;-83
2023/10/20 06:05:26;;;;;;;;;;;11.00;58.20;;;9.58;58.18;98974.28;12253466;19;20357;-85
2023/10/20 06:09:28;;;;;;;;;;;10.90;57.10;;;9.58;58.22;98990.75;12256650;19;19919;-83
2023/10/20 06:13:34;;;;;;;;;;;10.90;56.60;;;9.58;58.32;98976.88;12253637;19;20334;-82
2023/10/20 06:17:36;;;;;;;;;;;10.90;58.10;;;9.62;58.26;98978.31;12254159;19;19929;-84
2023/10/20 06:21:42;;;;;;;;;;;10.90;58.30;;;9.62;58.28;98976.53;12251249;19;19922;-85
2023/10/20 06:25:43;;;;;;;;;;;11.00;58.20;;;9.38;58.29;98916.78;12255981;19;19974;-83
2023/10/20 06:29:54;;;;;;;;;;;10.90;57.40;;;9.53;58.36;98953.78;12249350;19;19949;-83
2023/10/20 06:38:17;;;;;;;;;;;10.90;57.20;;;9.53;58.39;98980.69;12255268;19;19923;-84
2023/10/20 06:42:19;;;;;;;;;;;10.80;58.50;;;9.53;58.35;98979.84;12254430;19;19952;-84
2023/10/20 06:46:21;;;;;;;;;;;10.80;58.90;;;9.49;58.52;98966.25;12251576;19;19932;-85
2023/10/20 06:50:23;;;;;;;;;;;10.80;58.90;;;9.50;58.33;98954.88;12248936;19;19914;-83
2023/10/20 06:54:24;;;;;;;;;;;10.80;58.70;;;9.49;58.47;98936.75;12253065;19;19923;-82
2023/10/20 06:58:26;;;;;;;;;;;10.80;57.70;;;9.45;58.51;98937.94;12248495;19;19922;-84
2023/10/20 07:02:27;;;;;;;;;;;10.80;59.20;;;9.46;58.51;98926.59;12252729;19;19934;-83
2023/10/20 07:06:29;;;;;;;;;;;10.70;58.30;;;9.39;58.54;98938.44;12250977;19;19923;-84
2023/10/20 07:10:37;;;;;;;;;;;10.90;58.10;;;9.44;58.63;98931.09;12246361;19;20266;-84
2023/10/20 07:14:39;;;;;;;;;;;10.70;57.60;;;9.39;58.71;98922.81;12249866;19;20364;-84
2023/10/20 07:18:40;;;;;;;;;;;10.70;58.30;;;9.40;58.52;98925.31;12247792;19;20394;-84
2023/10/20 07:22:42;;;;;;;;;;;10.70;57.40;;;9.35;58.59;98919.63;12249223;19;19926;-83
2023/10/20 07:26:43;;;;;;;;;;;10.70;58.60;;;9.39;58.53;98912.38;12249564;19;19966;-83
2023/10/20 07:30:45;;;;;;;;;;;10.90;58.40;;;9.09;58.64;98843.56;12244093;19;19919;-83
2023/10/20 07:34:46;;;;;;;;;;;10.60;58.70;;;9.22;58.72;98893.72;12246591;19;19930;-84
2023/10/20 07:38:48;;;;;;;;;;;10.60;58.70;;;9.37;58.67;98909.91;12248695;19;19922;-83
2023/10/20 07:42:49;;;;;;;;;;;10.60;59.30;;;9.35;58.64;98905.78;12249728;19;19934;-83
2023/10/20 07:46:51;;;;;;;;;;;10.60;58.30;;;9.35;58.73;98898.78;12247767;19;20578;-83
2023/10/20 07:50:52;;;;;;;;;;;10.60;58.10;;;9.33;58.72;98902.47;12240572;19;19923;-83
2023/10/20 07:54:54;;;;;;;;;;;10.60;59.40;;;9.28;58.68;98880.19;12244373;19;19927;-83
2023/10/20 07:58:55;;;;;;;;;;;10.60;59.40;;;9.20;58.77;98864.34;12245818;19;20344;-83
2023/10/20 08:02:56;;;;;;;;;;;10.60;58.80;;;9.28;58.91;98876.78;12247701;19;19922;-83
2023/10/20 08:06:59;;;;;;;;;;;10.60;59.00;;;9.18;58.79;98860.22;12248387;19;19918;-83
2023/10/20 08:11:03;;;;;;;;;;;10.50;58.60;;;9.25;58.88;98848.38;12244303;19;19932;-83
2023/10/20 08:15:05;;;;;;;;;;;10.50;58.40;;;9.19;58.77;98839.28;12245163;19;19919;-83
2023/10/20 08:19:07;;;;;;;;;;;10.50;58.70;;;9.18;58.99;98810.72;12246176;19;19923;-84
2023/10/20 08:23:08;;;;;;;;;;;10.70;58.80;;;9.27;58.73;98829.06;12246641;19;19918;-84
2023/10/20 08:27:10;;;;;;;;;;;10.50;58.70;;;9.23;58.90;98837.25;12245636;19;20269;-84
2023/10/20 08:31:19;;;;;;;;;;;10.50;57.90;;;9.26;58.74;98855.22;12240927;19;19938;-84
2023/10/20 08:35:21;;;;;;;;;;;10.50;58.90;;;9.20;58.90;98864.34;12244507;19;19918;-84
2023/10/20 08:39:25;;;;;;;;;;;10.50;58.30;;;9.16;58.86;98865.56;12241776;19;19974;-83
2023/10/20 08:43:27;;;;;;;;;;;10.50;57.40;;;9.21;58.96;98875.63;12239943;19;19931;-83
2023/10/20 08:47:29;;;;;;;;;;;10.50;58.50;;;9.21;58.95;98883.44;12244064;19;20378;-83
2023/10/20 08:51:31;;;;;;;;;;;10.50;57.70;;;9.25;59.00;98885.66;12243254;19;19940;-83
2023/10/20 08:55:32;;;;;;;;;;;10.50;58.00;;;9.06;58.78;98826.41;12246477;19;19918;-83
2023/10/20 08:59:37;;;;;;;;;;;10.50;57.60;;;9.16;59.00;98846.50;12246129;19;19922;-83
2023/10/20 09:03:40;;;;;;;;;;;10.50;58.70;;;9.17;58.88;98850.75;12242818;19;19922;-83
2023/10/20 09:07:50;;;;;;;;;;;10.50;59.00;;;9.22;58.95;98849.44;12239753;19;19922;-82
2023/10/20 09:11:53;;;;;;;;;;;10.50;59.10;;;9.06;58.83;98841.19;12249855;19;19947;-83
2023/10/20 09:15:55;;;;;;;;;;;10.50;58.10;;;9.08;58.98;98837.53;12249333;19;19918;-83
2023/10/20 09:20:12;;;;;;;;;;;10.40;59.40;;;9.06;59.20;98836.00;12243607;19;20322;-83
2023/10/20 09:24:14;;;;;;;;;;;10.40;59.00;;;9.13;59.03;98838.91;12238961;19;19936;-83
2023/10/20 09:28:17;;;;;;;;;;;10.40;59.10;;;8.97;59.16;98808.91;12239594;19;19925;-83
2023/10/20 09:32:19;;;;;;;;;;;10.40;59.00;;;9.11;59.03;98833.84;12239981;19;20353;-83
2023/10/20 09:36:24;;;;;;;;;;;10.40;58.60;;;9.07;59.25;98817.66;12241869;19;19918;-83
2023/10/20 09:40:26;;;;;;;;;;;10.40;59.10;;;9.09;59.22;98822.72;12240468;19;19994;-83
2023/10/20 09:45:06;;;;;;;;;;;10.40;60.60;;;9.00;59.35;98807.84;12244154;19;20330;-83
2023/10/20 09:49:27;;;;;;;;;;;10.40;58.80;;;9.07;59.19;98798.56;12240614;19;19939;-83
2023/10/20 09:53:28;;;;;;;;;;;10.40;58.60;;;9.05;59.13;98795.28;12240816;19;19986;-83
2023/10/20 09:57:30;;;;;;;;;;;10.40;58.40;;;9.06;59.12;98789.13;12252548;19;20247;-83
2023/10/20 10:01:32;;;;;;;;;;;10.40;59.20;;;9.10;59.15;98795.75;12253962;19;19929;-83
2023/10/20 10:05:36;;;;;;;;;;;10.40;58.70;;;9.01;59.36;98766.06;12252541;19;20338;-83
2023/10/20 10:09:49;;;;;;;;;;;10.40;58.70;;;9.03;59.39;98766.75;12249790;19;19918;-83
2023/10/20 10:14:01;;;;;;;;;;;10.40;58.70;;;9.00;59.36;98767.00;12256072;19;19926;-83
2023/10/20 10:18:09;;;;;;;;;;;10.40;58.70;;;9.06;59.27;98776.09;12254327;19;19949;-84
2023/10/20 10:22:15;;;;;;;;;;;10.30;59.00;;;9.08;59.36;98774.22;12254958;19;19919;-83
2023/10/20 10:26:18;;;;;;;;;;;10.30;60.00;;;9.00;59.42;98776.59;12255141;19;19982;-83
2023/10/20 10:30:27;;;;;;;;;;;10.30;59.40;;;8.97;59.38;98771.66;12251433;19;19919;-84
2023/10/20 10:34:39;;;;;;;;;;;10.30;58.80;;;8.99;59.29;98764.53;12253673;19;19922;-82
2023/10/20 10:38:43;;;;;;;;;;;10.30;59.30;;;8.91;59.56;98756.50;12250306;19;19911;-83
2023/10/20 10:42:46;;;;;;;;;;;10.30;59.00;;;8.95;59.46;98773.53;12252973;19;19915;-83
2023/10/20 10:46:49;;;;;;;;;;;10.30;59.90;;;8.95;59.41;98760.53;12252703;19;20254;-83
2023/10/20 10:50:51;;;;;;;;;;;10.30;59.90;;;9.03;59.33;98771.16;12249062;19;19927;-84
2023/10/20 10:54:52;;;;;;;;;;;10.30;59.70;;;8.81;59.34;98736.44;12250654;19;19987;-83
2023/10/20 10:58:54;;;;;;;;;;;10.30;59.10;;;8.84;59.37;98735.34;12248317;19;19922;-83
2023/10/20 11:02:57;;;;;;;;;;;10.30;59.90;;;8.91;59.62;98754.75;12251977;19;19974;-82
2023/10/20 11:06:58;;;;;;;;;;;10.30;59.60;;;8.92;59.45;98765.97;12247227;19;19915;-82
2023/10/20 11:11:00;;;;;;;;;;;10.40;59.70;;;8.68;59.48;98727.94;12245957;19;19922;-81
2023/10/20 11:15:03;;;;;;;;;;;10.30;59.70;;;8.86;59.59;98765.50;12249774;19;20388;-82
2023/10/20 11:19:05;;;;;;;;;;;10.20;59.80;;;8.98;59.53;98768.09;12249555;19;20314;-82
2023/10/20 11:23:08;;;;;;;;;;;10.30;59.30;;;8.86;59.58;98749.91;12250782;19;20360;-82
2023/10/20 11:27:10;;;;;;;;;;;10.30;59.60;;;8.87;59.71;98745.50;12252942;19;19947;-83
2023/10/20 11:31:11;;;;;;;;;;;10.30;59.60;;;8.95;59.48;98768.34;12249046;19;19915;-82
2023/10/20 11:35:13;;;;;;;;;;;10.30;59.70;;;8.93;59.62;98771.03;12249849;19;19923;-83
2023/10/20 11:39:16;;;;;;;;;;;10.30;60.10;;;8.86;59.72;98757.72;12251741;19;19926;-83
2023/10/20 11:43:17;;;;;;;;;;;10.30;59.70;;;8.94;59.59;98769.25;12244181;19;19922;-83
2023/10/20 11:47:19;;;;;;;;;;;10.30;59.20;;;8.97;59.53;98772.47;12249534;19;19939;-83
2023/10/20 11:51:20;;;;;;;;;;;10.30;59.30;;;8.93;59.67;98770.22;12248383;19;19927;-83
2023/10/20 11:55:22;;;;;;;;;;;10.20;60.50;;;8.90;59.67;98791.28;12244303;19;19922;-84
2023/10/20 11:59:24;;;;;;;;;;;10.20;59.40;;;8.87;59.71;98787.16;12245816;19;19925;-85
2023/10/20 12:03:25;;;;;;;;;;;10.20;59.10;;;8.88;59.75;98772.38;12247175;19;19922;-84
2023/10/20 12:07:27;;;;;;;;;;;10.30;60.00;;;8.95;59.84;98779.56;12245885;19;19953;-84
2023/10/20 12:11:28;;;;;;;;;;;10.20;59.30;;;8.94;59.78;98771.88;12246705;19;20506;-84
2023/10/20 12:15:32;;;;;;;;;;;10.20;59.40;;;8.99;59.72;98769.72;12246801;19;20417;-84
2023/10/20 12:19:34;;;;;;;;;;;10.30;59.60;;;8.96;59.69;98739.56;12245805;19;19983;-84
2023/10/20 12:23:36;;;;;;;;;;;10.20;59.80;;;8.96;59.71;98738.75;12246464;19;19953;-83
2023/10/20 12:27:37;;;;;;;;;;;10.30;59.80;;;8.96;59.69;98723.13;12246356;19;19914;-84
2023/10/20 12:31:39;;;;;;;;;;;10.20;59.60;;;8.90;59.73;98714.03;12246610;19;19945;-84
2023/10/20 12:35:41;;;;;;;;;;;10.30;59.50;;;8.98;59.76;98718.63;12247087;19;19931;-85
2023/10/20 12:39:42;;;;;;;;;;;10.30;59.90;;;8.94;59.73;98710.25;12242710;19;20257;-84
2023/10/20 12:43:46;;;;;;;;;;;10.20;59.60;;;8.86;59.93;98691.81;12247402;19;19919;-84
2023/10/20 12:47:48;;;;;;;;;;;10.20;59.20;;;8.88;59.97;98684.69;12244020;19;20569;-85
2023/10/20 12:51:50;;;;;;;;;;;10.20;59.90;;;8.80;59.91;98674.94;12244146;19;19918;-86
2023/10/20 12:55:53;;;;;;;;;;;10.30;59.40;;;8.96;59.91;98686.69;12245265;19;19939;-84
2023/10/20 12:59:54;;;;;;;;;;;10.30;59.50;;;8.99;59.71;98666.44;12246648;19;19914;-83
2023/10/20 13:03:55;;;;;;;;;;;10.40;59.70;;;8.98;59.78;98659.56;12249982;19;19918;-83
2023/10/20 13:07:57;;;;;;;;;;;10.30;59.60;;;8.95;59.86;98646.81;12236756;19;19922;-83
2023/10/20 13:11:59;;;;;;;;;;;10.20;59.70;;;8.92;60.04;98641.84;12242842;19;19927;-83
2023/10/20 13:16:02;;;;;;;;;;;10.20;59.90;;;8.82;59.85;98620.94;12245922;19;20142;-83
2023/10/20 13:20:05;;;;;;;;;;;10.20;61.10;;;8.85;59.87;98617.28;12240141;19;19985;-83
2023/10/20 13:24:07;;;;;;;;;;;10.10;59.50;;;8.72;59.97;98580.19;12242922;19;19919;-83
2023/10/20 13:28:09;;;;;;;;;;;10.20;60.10;;;8.79;60.15;98605.59;12241413;19;20605;-83
2023/10/20 13:32:11;;;;;;;;;;;10.10;59.70;;;8.81;60.02;98614.09;12252457;19;20355;-83
2023/10/20 13:36:16;;;;;;;;;;;10.10;59.60;;;8.85;60.05;98620.69;12255734;19;19921;-83
2023/10/20 13:40:18;;;;;;;;;;;10.10;59.40;;;8.74;59.94;98575.69;12246627;19;20249;-83
2023/10/20 13:44:19;;;;;;;;;;;10.10;59.50;;;8.86;60.00;98600.72;12255997;19;19919;-83
2023/10/20 13:48:20;;;;;;;;;;;10.10;60.40;;;8.85;60.04;98592.06;12254790;19;19907;-82
2023/10/20 13:52:23;;;;;;;;;;;10.10;59.60;;;8.79;59.96;98571.75;12256154;19;19907;-83
2023/10/20 13:56:24;;;;;;;;;;;10.10;59.40;;;8.80;60.13;98578.63;12253965;19;19915;-83
2023/10/20 14:00:26;;;;;;;;;;;10.10;59.60;;;8.69;60.19;98560.47;12253043;19;19923;-83
2023/10/20 14:04:28;;;;;;;;;;;10.10;61.20;;;8.51;60.26;98535.97;12256632;19;19924;-83
2023/10/20 14:08:29;;;;;;;;;;;10.00;60.90;;;8.49;60.29;98549.09;12254621;19;19926;-83
2023/10/20 14:12:31;;;;;;;;;;;10.00;60.90;;;8.67;60.42;98578.00;12256094;19;19930;-83
2023/10/20 14:16:36;;;;;;;;;;;9.90;61.50;;;8.70;60.20;98595.94;12252388;19;19917;-83
2023/10/20 14:20:39;;;;;;;;;;;10.00;59.50;;;8.56;60.35;98588.44;12249423;19;19942;-83
2023/10/20 14:24:40;;;;;;;;;;;10.00;59.90;;;8.44;60.17;98566.03;12252151;19;20281;-82
2023/10/20 14:28:42;;;;;;;;;;;10.00;59.30;;;8.50;60.32;98573.31;12253896;19;19915;-83
2023/10/20 14:32:43;;;;;;;;;;;9.90;59.50;;;8.59;60.32;98583.00;12251503;19;19922;-83
2023/10/20 14:36:45;;;;;;;;;;;9.90;59.60;;;8.53;60.27;98549.66;12255617;19;19921;-82
2023/10/20 14:40:47;;;;;;;;;;;9.90;59.90;;;8.55;60.25;98543.38;12252306;19;19911;-83
2023/10/20 14:44:50;;;;;;;;;;;9.90;59.60;;;8.55;60.26;98543.38;12252971;19;20387;-83
2023/10/20 14:48:51;;;;;;;;;;;9.90;59.30;;;8.56;60.24;98549.41;12254183;19;19943;-82
2023/10/20 14:52:53;;;;;;;;;;;9.90;60.20;;;8.44;60.40;98540.84;12251908;19;20573;-83
2023/10/20 14:56:55;;;;;;;;;;;9.90;60.00;;;8.53;60.37;98550.50;12254749;19;19922;-83
2023/10/20 15:00:57;;;;;;;;;;;10.00;59.10;;;8.43;60.28;98535.78;12245036;19;19982;-83
2023/10/20 15:04:59;;;;;;;;;;;9.80;59.60;;;8.51;60.19;98548.97;12251516;19;19911;-83
2023/10/20 15:09:00;;;;;;;;;;;9.80;59.00;;;8.46;60.23;98554.56;12250333;19;19907;-84
2023/10/20 15:13:03;;;;;;;;;;;9.80;59.20;;;8.25;60.30;98514.66;12251050;19;19919;-84
2023/10/20 15:17:04;;;;;;;;;;;9.80;59.50;;;8.44;60.19;98555.63;12253157;19;19931;-84
2023/10/20 15:21:06;;;;;;;;;;;9.70;59.70;;;8.43;60.23;98548.78;12248100;19;20259;-83
2023/10/20 15:25:08;;;;;;;;;;;9.70;59.30;;;8.43;60.32;98528.78;12252445;19;19911;-83
2023/10/20 15:29:11;;;;;;;;;;;9.70;59.80;;;8.41;60.49;98570.53;12249640;19;19925;-83
2023/10/20 15:33:12;;;;;;;;;;;9.70;59.60;;;8.36;60.23;98595.22;12252438;19;19928;-83
2023/10/20 15:37:14;;;;;;;;;;;9.70;59.00;;;8.29;60.35;98565.44;12250260;19;19918;-83
2023/10/20 15:41:17;;;;;;;;;;;9.70;59.40;;;8.31;60.21;98577.38;12245475;19;19931;-83
2023/10/20 15:45:19;;;;;;;;;;;9.70;60.20;;;8.32;60.22;98560.03;12248395;19;19923;-84
2023/10/20 15:49:20;;;;;;;;;;;9.70;59.60;;;8.38;60.33;98549.94;12249113;19;19919;-84
2023/10/20 15:53:22;;;;;;;;;;;9.70;59.70;;;8.37;60.43;98558.69;12247779;19;19919;-84
2023/10/20 15:57:25;;;;;;;;;;;9.70;59.00;;;8.10;60.49;98516.72;12247693;19;19959;-83
2023/10/20 16:01:28;;;;;;;;;;;9.70;59.90;;;8.34;60.22;98545.91;12251247;19;19918;-83
2023/10/20 16:05:29;;;;;;;;;;;9.70;59.60;;;8.39;60.27;98553.38;12250407;19;19926;-84
2023/10/20 16:09:30;;;;;;;;;;;9.70;59.00;;;8.37;60.33;98560.44;12249537;19;19910;-84
2023/10/20 16:13:32;;;;;;;;;;;9.70;58.90;;;8.30;60.28;98554.94;12249916;19;19938;-83
2023/10/20 16:17:33;;;;;;;;;;;9.70;60.20;;;8.34;60.33;98577.13;12252284;19;19915;-83
2023/10/20 16:21:35;;;;;;;;;;;9.60;59.50;;;8.31;60.50;98572.19;12250312;19;19915;-83
2023/10/20 16:25:37;;;;;;;;;;;9.70;59.30;;;8.30;60.34;98575.75;12253481;19;19923;-83
2023/10/20 16:29:41;;;;;;;;;;;9.70;59.60;;;8.27;60.32;98580.38;12249504;19;19927;-83
2023/10/20 16:33:42;;;;;;;;;;;9.70;59.50;;;8.35;60.47;98597.00;12249458;19;19937;-83
2023/10/20 16:37:45;;;;;;;;;;;9.70;59.70;;;8.34;60.50;98602.31;12249292;19;19907;-83
2023/10/20 16:41:46;;;;;;;;;;;9.70;59.70;;;8.41;60.46;98608.72;12246383;19;19990;-84
2023/10/20 16:45:47;;;;;;;;;;;9.70;59.10;;;8.42;60.52;98610.34;12243504;19;19922;-83
2023/10/20 16:49:50;;;;;;;;;;;9.70;59.00;;;8.49;60.37;98600.28;12244009;19;19926;-84
2023/10/20 16:53:52;;;;;;;;;;;9.90;59.50;;;8.45;60.40;98593.69;12245967;19;20351;-84
2023/10/20 16:57:53;;;;;;;;;;;9.80;59.00;;;8.47;60.46;98591.78;12244648;19;19918;-83
2023/10/20 17:01:55;;;;;;;;;;;10.00;58.90;;;8.59;60.48;98599.44;12245135;19;19911;-84
2023/10/20 17:05:57;;;;;;;;;;;9.90;59.10;;;8.60;60.36;98602.84;12251620;19;19926;-84
2023/10/20 17:09:59;;;;;;;;;;;9.90;59.30;;;8.48;60.51;98583.88;12252783;19;19926;-84
2023/10/20 17:14:01;;;;;;;;;;;9.90;59.20;;;8.61;60.28;98578.47;12257728;19;19930;-84
2023/10/20 17:18:06;;;;;;;;;;;9.90;59.00;;;8.62;60.30;98578.34;12256542;19;19919;-83
2023/10/20 17:22:07;;;;;;;;;;;9.90;59.30;;;8.65;60.48;98603.31;12258150;19;19922;-83
2023/10/20 17:26:09;;;;;;;;;;;10.00;58.60;;;8.60;60.29;98589.84;12255463;19;19919;-83
2023/10/20 17:30:11;;;;;;;;;;;10.00;58.50;;;8.73;60.40;98584.47;12253129;19;19922;-83
2023/10/20 17:34:13;;;;;;;;;;;10.00;58.40;;;8.72;60.51;98581.06;12255656;19;19926;-84
2023/10/20 17:38:15;;;;;;;;;;;10.10;59.10;;;8.71;60.48;98574.16;12253949;19;20316;-83
2023/10/20 17:42:17;;;;;;;;;;;10.00;59.10;;;8.75;60.32;98574.75;12255999;19;19915;-83
2023/10/20 17:46:19;;;;;;;;;;;10.10;59.00;;;8.85;60.32;98575.63;12254150;19;19919;-84
2023/10/20 17:50:20;;;;;;;;;;;10.10;58.80;;;8.63;60.50;98558.38;12250739;19;19907;-83
2023/10/20 17:54:22;;;;;;;;;;;10.10;58.80;;;8.88;60.37;98600.59;12248805;19;20325;-85
2023/10/20 17:58:25;;;;;;;;;;;10.10;58.60;;;8.81;60.23;98580.28;12254516;19;19947;-84
2023/10/20 18:02:26;;;;;;;;;;;10.20;58.60;;;8.92;60.39;98581.19;12253081;19;19926;-84
2023/10/20 18:06:28;;;;;;;;;;;10.20;58.50;;;8.95;60.59;98588.72;12255634;19;20293;-83
2023/10/20 18:10:29;;;;;;;;;;;10.30;58.60;;;8.91;60.27;98595.97;12250133;19;19925;-83
2023/10/20 18:14:30;;;;;;;;;;;10.30;58.50;;;9.04;60.35;98616.59;12254029;19;19919;-83
2023/10/20 18:18:31;;;;;;;;;;;10.30;58.70;;;9.00;60.27;98617.81;12252090;19;19914;-83
2023/10/20 18:22:33;;;;;;;;;;;10.60;58.60;;;9.08;60.23;98628.41;12251320;19;19921;-83
2023/10/20 18:26:34;;;;;;;;;;;10.40;58.20;;;9.05;60.41;98633.88;12253459;19;19919;-83
2023/10/20 18:30:35;;;;;;;;;;;10.40;58.20;;;9.01;60.35;98622.06;12247954;19;19926;-83
2023/10/20 18:34:37;;;;;;;;;;;10.40;58.30;;;9.11;60.49;98654.19;12248629;19;19939;-83
2023/10/20 18:38:38;;;;;;;;;;;10.40;58.30;;;8.96;60.37;98621.59;12249825;19;19919;-83
2023/10/20 18:42:39;;;;;;;;;;;10.40;58.70;;;9.13;60.31;98643.63;12251685;19;19911;-83
2023/10/20 18:46:41;;;;;;;;;;;10.50;58.70;;;9.08;60.27;98625.81;12250800;19;19927;-83
2023/10/20 18:50:42;;;;;;;;;;;10.50;58.60;;;9.19;60.35;98632.72;12248549;19;19933;-83
2023/10/20 18:54:44;;;;;;;;;;;10.50;58.70;;;9.09;60.42;98625.66;12251660;19;19926;-82
2023/10/20 18:58:45;;;;;;;;;;;10.50;58.30;;;9.23;60.35;98667.97;12249389;19;19926;-83
2023/10/20 19:02:48;;;;;;;;;;;10.50;58.50;;;9.25;60.40;98698.13;12252634;19;19922;-83
2023/10/20 19:06:49;;;;;;;;;;;10.50;58.30;;;9.15;60.37;98676.41;12250211;19;19944;-84
2023/10/20 19:10:51;;;;;;;;;;;10.60;58.40;;;9.31;60.43;98700.22;12249332;19;19930;-83
2023/10/20 19:14:53;;;;;;;;;;;10.60;58.30;;;9.24;60.25;98680.88;12249733;19;19926;-83